CheckWX is a tool to help pilots better visualize weather data.  It is not intended as a substitute for an official pre-flight weather briefing.

18:45:50 UTC

KMUO METAR
Mountain Home AFB Airport
Mountain Home, Idaho, USA
Current

48 mins ago

KMUO 221758Z AUTO 32006KT 10SM FEW190 FEW220 M05/M05 A3009 RMK AO2 SLP227 T10481048 11048 21112 52011 $
Observed
Feb-22 @ 17:58 UTC
Wind
  • 320° at 6 KTS
Visibility
10 SM
Flight Rules
VFR
Cloud Levels
  • Few at 19,000' AGL
  • Few at 22,000' AGL
Temperature
-5°C / 23°F
Dewpoint
-5°C / 23°F
Humidity
100%
Altimeter
30.09" Hg
Pressure
1022.7 hPa
Previous

2 hours ago

KMUO 221658Z AUTO 28008KT 10SM CLR M06/M06 A3008 RMK AO2 SLP223 T10571057 $
Observed
Feb-22 @ 16:58 UTC
Wind
  • 280° at 8 KTS
Visibility
10 SM
Flight Rules
VFR
Cloud Levels
  • Clear skies
Temperature
-6°C / 21°F
Dewpoint
-6°C / 21°F
Humidity
100%
Altimeter
30.08" Hg
Pressure
1022.3 hPa
Previous

3 hours ago

KMUO 221558Z AUTO 29005KT 10SM CLR M08/M08 A3007 RMK AO2 SLP220 T10781078 $
Observed
Feb-22 @ 15:58 UTC
Wind
  • 290° at 5 KTS
Visibility
10 SM
Flight Rules
VFR
Cloud Levels
  • Clear skies
Temperature
-8°C / 18°F
Dewpoint
-8°C / 18°F
Humidity
100%
Altimeter
30.07" Hg
Pressure
1022 hPa